sensor_id;sensor_type;location;lat;lon;timestamp;P1;P2;P0
12542;PMS3003;6337;49.556;25.594;2023-07-13T03:32:37;8.90;7.87;
12542;PMS3003;6337;49.556;25.594;2023-07-13T03:35:33;13.17;8.90;
12542;PMS3003;6337;49.556;25.594;2023-07-13T03:45:01;14.30;8.23;
12542;PMS3003;6337;49.556;25.594;2023-07-13T03:51:15;12.30;9.47;
12542;PMS3003;6337;49.556;25.594;2023-07-13T03:54:13;10.63;8.77;
12542;PMS3003;6337;49.556;25.594;2023-07-13T03:57:05;11.60;9.00;
12542;PMS3003;6337;49.556;25.594;2023-07-13T04:00:01;9.10;8.20;
12542;PMS3003;6337;49.556;25.594;2023-07-13T04:06:07;12.23;8.07;
12542;PMS3003;6337;49.556;25.594;2023-07-13T04:12:18;10.13;8.63;
12542;PMS3003;6337;49.556;25.594;2023-07-13T04:21:33;9.83;8.80;
12542;PMS3003;6337;49.556;25.594;2023-07-13T04:24:25;16.03;8.20;
12542;PMS3003;6337;49.556;25.594;2023-07-13T04:27:18;12.17;8.57;
12542;PMS3003;6337;49.556;25.594;2023-07-13T04:30:23;15.37;9.20;
12542;PMS3003;6337;49.556;25.594;2023-07-13T05:02:37;13.30;9.30;
12542;PMS3003;6337;49.556;25.594;2023-07-13T05:05:29;11.20;9.10;
12542;PMS3003;6337;49.556;25.594;2023-07-13T05:08:21;9.57;7.10;
12542;PMS3003;6337;49.556;25.594;2023-07-13T05:21:02;11.50;7.77;
12542;PMS3003;6337;49.556;25.594;2023-07-13T05:27:11;8.37;7.47;
12542;PMS3003;6337;49.556;25.594;2023-07-13T05:33:17;9.30;7.83;
12542;PMS3003;6337;49.556;25.594;2023-07-13T05:39:23;11.43;8.50;
12542;PMS3003;6337;49.556;25.594;2023-07-13T05:42:15;10.10;7.60;
12542;PMS3003;6337;49.556;25.594;2023-07-13T05:48:24;8.27;6.80;
12542;PMS3003;6337;49.556;25.594;2023-07-13T05:54:35;10.73;7.07;
12542;PMS3003;6337;49.556;25.594;2023-07-13T05:57:28;11.90;7.60;
12542;PMS3003;6337;49.556;25.594;2023-07-13T06:00:26;13.00;7.47;
12542;PMS3003;6337;49.556;25.594;2023-07-13T06:03:17;12.53;8.70;
12542;PMS3003;6337;49.556;25.594;2023-07-13T06:06:22;9.23;8.30;
12542;PMS3003;6337;49.556;25.594;2023-07-13T06:09:14;8.57;7.67;
12542;PMS3003;6337;49.556;25.594;2023-07-13T06:25:03;9.37;7.67;
12542;PMS3003;6337;49.556;25.594;2023-07-13T06:27:55;16.30;8.07;
12542;PMS3003;6337;49.556;25.594;2023-07-13T06:30:48;11.00;8.57;
12542;PMS3003;6337;49.556;25.594;2023-07-13T06:52:47;8.87;7.50;
12542;PMS3003;6337;49.556;25.594;2023-07-13T06:55:31;11.53;6.97;
12542;PMS3003;6337;49.556;25.594;2023-07-13T06:57:59;15.53;8.80;
12542;PMS3003;6337;49.556;25.594;2023-07-13T07:00:26;10.37;8.00;
12542;PMS3003;6337;49.556;25.594;2023-07-13T07:02:55;9.97;8.83;
12542;PMS3003;6337;49.556;25.594;2023-07-13T07:05:24;7.17;6.57;
12542;PMS3003;6337;49.556;25.594;2023-07-13T07:07:54;9.67;7.27;
12542;PMS3003;6337;49.556;25.594;2023-07-13T07:10:25;8.97;7.40;
12542;PMS3003;6337;49.556;25.594;2023-07-13T07:12:52;7.93;7.13;
12542;PMS3003;6337;49.556;25.594;2023-07-13T07:15:22;8.00;7.00;
12542;PMS3003;6337;49.556;25.594;2023-07-13T07:17:50;11.00;8.13;
12542;PMS3003;6337;49.556;25.594;2023-07-13T07:20:18;7.47;6.87;
12542;PMS3003;6337;49.556;25.594;2023-07-13T07:22:49;10.50;8.10;
12542;PMS3003;6337;49.556;25.594;2023-07-13T07:25:23;9.63;7.37;
12542;PMS3003;6337;49.556;25.594;2023-07-13T07:27:51;7.80;7.10;
12542;PMS3003;6337;49.556;25.594;2023-07-13T07:30:22;8.87;8.00;
12542;PMS3003;6337;49.556;25.594;2023-07-13T07:32:49;10.20;9.30;
12542;PMS3003;6337;49.556;25.594;2023-07-13T07:35:17;10.07;7.30;
12542;PMS3003;6337;49.556;25.594;2023-07-13T07:37:45;9.30;8.50;
12542;PMS3003;6337;49.556;25.594;2023-07-13T07:40:13;17.47;7.60;
12542;PMS3003;6337;49.556;25.594;2023-07-13T07:42:46;7.33;6.60;
12542;PMS3003;6337;49.556;25.594;2023-07-13T07:45:14;6.60;6.00;
12542;PMS3003;6337;49.556;25.594;2023-07-13T07:47:42;14.77;6.07;
12542;PMS3003;6337;49.556;25.594;2023-07-13T07:50:10;7.80;6.97;
12542;PMS3003;6337;49.556;25.594;2023-07-13T07:52:44;6.80;6.10;
12542;PMS3003;6337;49.556;25.594;2023-07-13T07:55:13;8.23;6.33;
12542;PMS3003;6337;49.556;25.594;2023-07-13T07:57:44;7.17;6.57;
12542;PMS3003;6337;49.556;25.594;2023-07-13T08:00:11;7.30;6.60;
12542;PMS3003;6337;49.556;25.594;2023-07-13T08:02:40;13.33;6.97;
12542;PMS3003;6337;49.556;25.594;2023-07-13T08:08:16;7.97;6.40;
12542;PMS3003;6337;49.556;25.594;2023-07-13T08:10:45;7.03;6.43;
12542;PMS3003;6337;49.556;25.594;2023-07-13T08:13:14;8.97;6.73;
12542;PMS3003;6337;49.556;25.594;2023-07-13T08:15:42;6.23;5.70;
12542;PMS3003;6337;49.556;25.594;2023-07-13T08:18:11;8.67;6.10;
12542;PMS3003;6337;49.556;25.594;2023-07-13T08:20:44;6.00;5.47;
12542;PMS3003;6337;49.556;25.594;2023-07-13T08:23:12;5.20;4.70;
12542;PMS3003;6337;49.556;25.594;2023-07-13T08:28:53;6.10;5.50;
12542;PMS3003;6337;49.556;25.594;2023-07-13T08:34:24;8.23;6.10;
12542;PMS3003;6337;49.556;25.594;2023-07-13T08:40:08;6.93;5.60;
12542;PMS3003;6337;49.556;25.594;2023-07-13T08:42:53;6.80;5.37;
12542;PMS3003;6337;49.556;25.594;2023-07-13T08:45:28;5.20;4.80;
12542;PMS3003;6337;49.556;25.594;2023-07-13T08:48:01;6.37;5.80;
12542;PMS3003;6337;49.556;25.594;2023-07-13T08:50:30;7.10;4.73;
12542;PMS3003;6337;49.556;25.594;2023-07-13T08:53:04;5.87;5.30;
12542;PMS3003;6337;49.556;25.594;2023-07-13T08:55:34;5.87;5.37;
12542;PMS3003;6337;49.556;25.594;2023-07-13T08:58:14;6.47;5.87;
12542;PMS3003;6337;49.556;25.594;2023-07-13T09:00:51;8.30;5.63;
12542;PMS3003;6337;49.556;25.594;2023-07-13T09:09:46;7.37;5.10;
12542;PMS3003;6337;49.556;25.594;2023-07-13T09:12:31;6.80;4.60;
12542;PMS3003;6337;49.556;25.594;2023-07-13T09:15:03;5.03;4.50;
12542;PMS3003;6337;49.556;25.594;2023-07-13T09:17:35;5.37;4.40;
12542;PMS3003;6337;49.556;25.594;2023-07-13T09:20:04;4.33;4.00;
12542;PMS3003;6337;49.556;25.594;2023-07-13T09:25:36;5.60;5.20;
12542;PMS3003;6337;49.556;25.594;2023-07-13T09:28:09;5.40;4.83;
12542;PMS3003;6337;49.556;25.594;2023-07-13T09:31:07;8.57;5.10;
12542;PMS3003;6337;49.556;25.594;2023-07-13T09:39:46;6.10;3.87;
12542;PMS3003;6337;49.556;25.594;2023-07-13T09:45:26;6.37;4.23;
12542;PMS3003;6337;49.556;25.594;2023-07-13T10:00:54;3.80;3.50;
12542;PMS3003;6337;49.556;25.594;2023-07-13T10:06:25;7.17;4.83;
12542;PMS3003;6337;49.556;25.594;2023-07-13T10:08:55;4.63;4.33;
12542;PMS3003;6337;49.556;25.594;2023-07-13T10:11:26;5.13;4.63;
12542;PMS3003;6337;49.556;25.594;2023-07-13T10:14:20;5.97;5.37;
12542;PMS3003;6337;49.556;25.594;2023-07-13T10:16:59;6.30;5.70;
12542;PMS3003;6337;49.556;25.594;2023-07-13T10:19:59;5.90;5.30;
12542;PMS3003;6337;49.556;25.594;2023-07-13T10:43:55;10.43;3.97;
12542;PMS3003;6337;49.556;25.594;2023-07-13T10:46:25;3.40;3.20;
12542;PMS3003;6337;49.556;25.594;2023-07-13T10:48:57;3.33;3.07;
12542;PMS3003;6337;49.556;25.594;2023-07-13T10:51:25;3.50;2.87;
12542;PMS3003;6337;49.556;25.594;2023-07-13T10:56:45;4.27;3.80;
12542;PMS3003;6337;49.556;25.594;2023-07-13T11:11:37;16.07;5.43;
12542;PMS3003;6337;49.556;25.594;2023-07-13T11:16:55;4.47;4.17;
12542;PMS3003;6337;49.556;25.594;2023-07-13T11:19:26;6.60;4.20;
12542;PMS3003;6337;49.556;25.594;2023-07-13T11:31:28;6.30;5.23;
12542;PMS3003;6337;49.556;25.594;2023-07-13T11:34:06;8.20;4.30;
12542;PMS3003;6337;49.556;25.594;2023-07-13T11:46:28;4.53;4.13;
12542;PMS3003;6337;49.556;25.594;2023-07-13T11:52:20;5.97;3.93;
12542;PMS3003;6337;49.556;25.594;2023-07-13T11:54:50;15.27;3.70;
12542;PMS3003;6337;49.556;25.594;2023-07-13T11:57:23;5.63;3.47;
12542;PMS3003;6337;49.556;25.594;2023-07-13T12:03:01;10.00;4.47;
12542;PMS3003;6337;49.556;25.594;2023-07-13T12:05:30;11.37;4.23;
12542;PMS3003;6337;49.556;25.594;2023-07-13T12:07:58;16.10;4.10;
12542;PMS3003;6337;49.556;25.594;2023-07-13T12:10:26;17.40;5.10;
12542;PMS3003;6337;49.556;25.594;2023-07-13T12:12:56;7.97;4.90;
12542;PMS3003;6337;49.556;25.594;2023-07-13T12:15:58;8.50;4.57;
12542;PMS3003;6337;49.556;25.594;2023-07-13T12:21:43;9.93;4.50;
12542;PMS3003;6337;49.556;25.594;2023-07-13T12:52:42;6.03;5.33;
12542;PMS3003;6337;49.556;25.594;2023-07-13T12:58:47;6.73;5.70;
12542;PMS3003;6337;49.556;25.594;2023-07-13T13:26:13;6.30;5.70;
12542;PMS3003;6337;49.556;25.594;2023-07-13T13:32:10;11.00;5.77;
12542;PMS3003;6337;49.556;25.594;2023-07-13T13:43:48;10.67;6.17;
12542;PMS3003;6337;49.556;25.594;2023-07-13T14:24:22;9.07;5.47;
12542;PMS3003;6337;49.556;25.594;2023-07-13T14:39:27;16.03;6.10;
12542;PMS3003;6337;49.556;25.594;2023-07-13T14:41:55;5.87;5.03;
12542;PMS3003;6337;49.556;25.594;2023-07-13T14:44:34;9.17;5.50;
12542;PMS3003;6337;49.556;25.594;2023-07-13T14:47:03;7.60;5.43;
12542;PMS3003;6337;49.556;25.594;2023-07-13T14:49:32;5.93;5.33;
12542;PMS3003;6337;49.556;25.594;2023-07-13T14:52:23;11.50;6.57;
12542;PMS3003;6337;49.556;25.594;2023-07-13T14:55:02;11.60;6.60;
12542;PMS3003;6337;49.556;25.594;2023-07-13T14:57:30;6.23;5.63;
12542;PMS3003;6337;49.556;25.594;2023-07-13T15:00:01;7.60;6.90;
12542;PMS3003;6337;49.556;25.594;2023-07-13T15:05:50;7.93;6.50;
12542;PMS3003;6337;49.556;25.594;2023-07-13T15:08:20;7.57;6.10;
12542;PMS3003;6337;49.556;25.594;2023-07-13T15:10:51;9.00;5.80;
12542;PMS3003;6337;49.556;25.594;2023-07-13T15:22:43;9.60;6.77;
12542;PMS3003;6337;49.556;25.594;2023-07-13T15:34:40;5.17;4.70;
12542;PMS3003;6337;49.556;25.594;2023-07-13T15:43:35;5.50;5.00;
12542;PMS3003;6337;49.556;25.594;2023-07-13T16:10:36;6.10;5.67;
12542;PMS3003;6337;49.556;25.594;2023-07-13T16:16:12;8.67;6.40;
12542;PMS3003;6337;49.556;25.594;2023-07-13T16:21:30;45.50;12.53;
12542;PMS3003;6337;49.556;25.594;2023-07-13T16:24:05;34.83;11.97;
12542;PMS3003;6337;49.556;25.594;2023-07-13T16:26:37;15.00;8.80;
12542;PMS3003;6337;49.556;25.594;2023-07-13T16:29:12;20.20;8.90;
12542;PMS3003;6337;49.556;25.594;2023-07-13T16:31:40;20.50;11.20;
12542;PMS3003;6337;49.556;25.594;2023-07-13T16:34:10;17.57;9.50;
12542;PMS3003;6337;49.556;25.594;2023-07-13T16:36:39;15.40;10.00;
12542;PMS3003;6337;49.556;25.594;2023-07-13T16:39:11;8.47;7.30;
12542;PMS3003;6337;49.556;25.594;2023-07-13T16:41:42;19.67;10.00;
12542;PMS3003;6337;49.556;25.594;2023-07-13T16:44:17;13.30;8.60;
12542;PMS3003;6337;49.556;25.594;2023-07-13T16:46:49;13.37;8.53;
12542;PMS3003;6337;49.556;25.594;2023-07-13T16:49:21;13.73;8.93;
12542;PMS3003;6337;49.556;25.594;2023-07-13T16:52:14;15.17;10.13;
12542;PMS3003;6337;49.556;25.594;2023-07-13T16:54:44;13.73;9.60;
12542;PMS3003;6337;49.556;25.594;2023-07-13T16:57:20;6.40;5.20;
12542;PMS3003;6337;49.556;25.594;2023-07-13T17:00:04;7.67;3.80;
12542;PMS3003;6337;49.556;25.594;2023-07-13T17:02:39;4.57;4.17;
12542;PMS3003;6337;49.556;25.594;2023-07-13T17:05:08;6.03;4.13;
12542;PMS3003;6337;49.556;25.594;2023-07-13T17:07:42;5.50;4.87;
12542;PMS3003;6337;49.556;25.594;2023-07-13T17:10:16;14.27;5.53;
12542;PMS3003;6337;49.556;25.594;2023-07-13T17:12:47;6.90;5.93;
12542;PMS3003;6337;49.556;25.594;2023-07-13T17:15:15;6.33;5.70;
12542;PMS3003;6337;49.556;25.594;2023-07-13T17:17:44;9.70;5.50;
12542;PMS3003;6337;49.556;25.594;2023-07-13T17:20:17;5.70;4.80;
12542;PMS3003;6337;49.556;25.594;2023-07-13T17:22:49;9.67;4.70;
12542;PMS3003;6337;49.556;25.594;2023-07-13T17:25:17;4.03;3.50;
12542;PMS3003;6337;49.556;25.594;2023-07-13T17:27:47;4.63;4.23;
12542;PMS3003;6337;49.556;25.594;2023-07-13T17:30:16;4.73;4.33;
12542;PMS3003;6337;49.556;25.594;2023-07-13T17:32:49;7.07;5.77;
12542;PMS3003;6337;49.556;25.594;2023-07-13T17:35:21;6.50;5.90;
12542;PMS3003;6337;49.556;25.594;2023-07-13T17:37:51;10.17;5.97;
12542;PMS3003;6337;49.556;25.594;2023-07-13T17:40:20;6.37;5.77;
12542;PMS3003;6337;49.556;25.594;2023-07-13T17:45:43;19.10;12.50;
12542;PMS3003;6337;49.556;25.594;2023-07-13T17:48:12;12.33;9.00;
12542;PMS3003;6337;49.556;25.594;2023-07-13T17:50:40;10.70;8.73;
12542;PMS3003;6337;49.556;25.594;2023-07-13T17:53:25;9.73;7.90;
12542;PMS3003;6337;49.556;25.594;2023-07-13T17:55:54;7.33;5.70;
12542;PMS3003;6337;49.556;25.594;2023-07-13T17:58:22;4.83;4.43;
12542;PMS3003;6337;49.556;25.594;2023-07-13T18:00:55;8.80;5.67;
12542;PMS3003;6337;49.556;25.594;2023-07-13T18:03:23;5.80;4.40;
12542;PMS3003;6337;49.556;25.594;2023-07-13T18:05:58;5.63;3.53;
12542;PMS3003;6337;49.556;25.594;2023-07-13T18:08:28;4.37;3.97;
12542;PMS3003;6337;49.556;25.594;2023-07-13T18:11:08;4.27;3.87;
12542;PMS3003;6337;49.556;25.594;2023-07-13T18:13:46;4.43;4.07;
12542;PMS3003;6337;49.556;25.594;2023-07-13T18:16:17;6.97;5.00;
12542;PMS3003;6337;49.556;25.594;2023-07-13T18:18:48;9.87;5.80;
12542;PMS3003;6337;49.556;25.594;2023-07-13T18:21:16;9.80;6.47;
12542;PMS3003;6337;49.556;25.594;2023-07-13T18:23:44;6.63;6.03;
12542;PMS3003;6337;49.556;25.594;2023-07-13T18:26:15;11.03;5.70;
12542;PMS3003;6337;49.556;25.594;2023-07-13T18:28:47;6.23;5.40;
12542;PMS3003;6337;49.556;25.594;2023-07-13T18:31:30;11.23;5.87;
12542;PMS3003;6337;49.556;25.594;2023-07-13T18:34:01;5.60;5.00;
12542;PMS3003;6337;49.556;25.594;2023-07-13T18:36:28;8.70;5.50;
12542;PMS3003;6337;49.556;25.594;2023-07-13T18:39:11;6.10;5.60;
12542;PMS3003;6337;49.556;25.594;2023-07-13T18:41:41;7.93;6.67;
12542;PMS3003;6337;49.556;25.594;2023-07-13T18:44:18;6.67;5.97;
12542;PMS3003;6337;49.556;25.594;2023-07-13T18:46:55;9.27;7.73;
12542;PMS3003;6337;49.556;25.594;2023-07-13T18:49:23;7.80;7.13;
12542;PMS3003;6337;49.556;25.594;2023-07-13T18:51:57;16.23;7.97;
12542;PMS3003;6337;49.556;25.594;2023-07-13T18:54:30;11.93;8.00;
12542;PMS3003;6337;49.556;25.594;2023-07-13T18:57:03;9.27;8.30;
12542;PMS3003;6337;49.556;25.594;2023-07-13T18:59:32;16.13;7.47;
12542;PMS3003;6337;49.556;25.594;2023-07-13T19:02:00;12.90;9.10;
12542;PMS3003;6337;49.556;25.594;2023-07-13T19:04:30;10.63;9.10;
12542;PMS3003;6337;49.556;25.594;2023-07-13T19:07:02;10.27;8.90;
12542;PMS3003;6337;49.556;25.594;2023-07-13T19:09:29;11.90;9.40;
12542;PMS3003;6337;49.556;25.594;2023-07-13T19:11:58;9.43;8.53;
12542;PMS3003;6337;49.556;25.594;2023-07-13T19:14:26;10.03;8.00;
12542;PMS3003;6337;49.556;25.594;2023-07-13T19:16:54;22.97;9.50;
12542;PMS3003;6337;49.556;25.594;2023-07-13T19:19:25;19.87;9.97;
12542;PMS3003;6337;49.556;25.594;2023-07-13T19:21:53;9.67;8.73;
12542;PMS3003;6337;49.556;25.594;2023-07-13T19:24:25;13.63;9.50;
12542;PMS3003;6337;49.556;25.594;2023-07-13T19:26:53;15.73;11.93;
12542;PMS3003;6337;49.556;25.594;2023-07-13T19:29:24;21.10;11.07;
12542;PMS3003;6337;49.556;25.594;2023-07-13T19:31:53;12.13;10.80;
12542;PMS3003;6337;49.556;25.594;2023-07-13T20:10:56;12.23;10.47;
12542;PMS3003;6337;49.556;25.594;2023-07-13T20:17:27;13.87;10.83;
12542;PMS3003;6337;49.556;25.594;2023-07-13T20:20:01;12.53;10.60;
12542;PMS3003;6337;49.556;25.594;2023-07-13T20:22:30;20.03;11.10;
12542;PMS3003;6337;49.556;25.594;2023-07-13T20:25:01;11.23;10.10;
12542;PMS3003;6337;49.556;25.594;2023-07-13T20:27:38;12.73;10.17;
12542;PMS3003;6337;49.556;25.594;2023-07-13T20:30:07;13.47;12.07;
12542;PMS3003;6337;49.556;25.594;2023-07-13T20:38:56;12.40;10.47;
12542;PMS3003;6337;49.556;25.594;2023-07-13T20:41:24;12.50;8.70;
12542;PMS3003;6337;49.556;25.594;2023-07-13T20:43:54;21.80;9.67;
12542;PMS3003;6337;49.556;25.594;2023-07-13T20:55:44;15.23;12.13;
12542;PMS3003;6337;49.556;25.594;2023-07-13T20:58:12;12.80;10.77;
12542;PMS3003;6337;49.556;25.594;2023-07-13T21:06:54;14.80;11.90;
12542;PMS3003;6337;49.556;25.594;2023-07-13T21:24:40;21.47;12.70;
12542;PMS3003;6337;49.556;25.594;2023-07-13T21:27:08;14.20;11.23;
12542;PMS3003;6337;49.556;25.594;2023-07-13T21:29:36;27.30;13.47;
12542;PMS3003;6337;49.556;25.594;2023-07-13T21:32:05;13.90;11.30;
12542;PMS3003;6337;49.556;25.594;2023-07-13T21:34:36;12.50;10.83;
12542;PMS3003;6337;49.556;25.594;2023-07-13T21:37:04;11.53;10.33;
12542;PMS3003;6337;49.556;25.594;2023-07-13T21:58:00;16.03;12.27;
12542;PMS3003;6337;49.556;25.594;2023-07-13T22:22:21;10.80;9.70;
12542;PMS3003;6337;49.556;25.594;2023-07-13T22:27:54;18.83;10.63;
12542;PMS3003;6337;49.556;25.594;2023-07-13T22:33:25;12.70;9.37;
12542;PMS3003;6337;49.556;25.594;2023-07-13T22:35:53;10.40;9.40;
12542;PMS3003;6337;49.556;25.594;2023-07-13T22:38:23;19.83;10.57;
12542;PMS3003;6337;49.556;25.594;2023-07-13T22:40:52;14.10;10.23;
12542;PMS3003;6337;49.556;25.594;2023-07-13T22:43:21;12.90;9.80;
12542;PMS3003;6337;49.556;25.594;2023-07-13T22:45:52;17.07;9.47;
12542;PMS3003;6337;49.556;25.594;2023-07-13T22:48:22;11.20;9.20;
12542;PMS3003;6337;49.556;25.594;2023-07-13T22:50:51;11.70;8.90;
12542;PMS3003;6337;49.556;25.594;2023-07-13T22:53:37;9.57;8.67;
12542;PMS3003;6337;49.556;25.594;2023-07-13T22:56:07;13.73;9.40;
12542;PMS3003;6337;49.556;25.594;2023-07-13T22:58:36;15.57;8.70;
12542;PMS3003;6337;49.556;25.594;2023-07-13T23:01:05;15.43;9.10;
